Time;durP1;ratioP1;P1;durP2;ratioP2;P2;SDS_P1;SDS_P2;PMS_P1;PMS_P2;Temp;Humidity;BMP_temperature;BMP_pressure;BME280_temperature;BME280_humidity;BME280_pressure;Samples;Min_cycle;Max_cycle;Signal;HPM_P1;HPM_P2
2021/01/01 00:00:39;;;;;;;36.08;19.55;;;1.30;99.90;;;;;;5099323;28;20446;-69
2021/01/01 00:03:05;;;;;;;32.50;19.88;;;1.30;99.90;;;;;;5089481;28;20067;-71
2021/01/01 00:05:31;;;;;;;40.65;23.40;;;1.40;99.90;;;;;;5090692;28;20028;-70
2021/01/01 00:07:57;;;;;;;44.78;24.60;;;1.40;99.90;;;;;;5063229;28;20031;-69
2021/01/01 00:10:23;;;;;;;42.53;25.30;;;1.50;99.90;;;;;;5066137;28;20032;-70
2021/01/01 00:12:49;;;;;;;42.47;24.33;;;1.50;99.90;;;;;;5089309;28;20473;-70
2021/01/01 00:15:15;;;;;;;43.50;24.70;;;1.60;99.90;;;;;;5088768;28;20046;-70
2021/01/01 00:17:41;;;;;;;41.15;24.50;;;1.60;99.90;;;;;;5035220;28;20045;-69
2021/01/01 00:20:09;;;;;;;44.40;26.17;;;1.60;99.90;;;;;;5090214;28;20036;-71
2021/01/01 00:22:36;;;;;;;50.42;28.70;;;1.70;99.90;;;;;;5072560;28;20043;-68
2021/01/01 00:25:03;;;;;;;45.72;28.05;;;1.80;99.90;;;;;;5072222;28;20075;-70
2021/01/01 00:27:30;;;;;;;44.88;26.70;;;1.80;99.90;;;;;;5091143;28;20024;-70
2021/01/01 00:29:56;;;;;;;43.60;25.10;;;1.80;99.90;;;;;;5082954;28;20027;-71
2021/01/01 00:32:22;;;;;;;42.95;24.92;;;1.80;99.90;;;;;;5084132;28;20037;-71
2021/01/01 00:34:48;;;;;;;39.78;24.48;;;1.80;99.90;;;;;;5089815;28;20028;-69
2021/01/01 00:37:14;;;;;;;44.53;26.13;;;1.80;99.90;;;;;;5091462;28;20112;-71
2021/01/01 00:39:40;;;;;;;29.67;18.67;;;1.80;99.90;;;;;;5072652;28;20531;-69
2021/01/01 00:42:06;;;;;;;21.60;13.93;;;1.80;99.90;;;;;;5073874;28;20495;-69
2021/01/01 00:44:32;;;;;;;23.75;15.02;;;1.80;99.90;;;;;;5092010;28;20036;-71
2021/01/01 00:46:58;;;;;;;19.52;14.07;;;1.80;99.90;;;;;;5081885;28;20032;-69
2021/01/01 00:49:24;;;;;;;20.58;12.75;;;1.90;99.90;;;;;;5091203;28;20442;-70
2021/01/01 00:51:50;;;;;;;25.05;13.35;;;1.90;99.90;;;;;;5088317;28;20115;-71
2021/01/01 00:54:17;;;;;;;27.15;16.52;;;1.90;99.90;;;;;;5076838;28;20043;-71
2021/01/01 00:56:42;;;;;;;27.63;16.38;;;1.90;99.90;;;;;;5078665;28;20505;-70
2021/01/01 00:59:08;;;;;;;27.25;15.63;;;1.90;99.90;;;;;;5086232;28;20103;-70
2021/01/01 01:01:34;;;;;;;24.33;15.00;;;1.80;99.90;;;;;;5086874;28;20024;-69
2021/01/01 01:03:59;;;;;;;23.30;14.38;;;1.80;99.90;;;;;;5088968;28;20036;-70
2021/01/01 01:06:26;;;;;;;19.80;12.98;;;1.80;99.90;;;;;;5085557;28;20036;-69
2021/01/01 01:08:53;;;;;;;19.05;12.50;;;1.80;99.90;;;;;;5081812;28;20481;-71
2021/01/01 01:11:26;;;;;;;21.25;12.82;;;1.80;99.90;;;;;;5083410;28;20059;-70
2021/01/01 01:13:56;;;;;;;21.50;13.48;;;1.80;99.90;;;;;;5085845;28;20032;-70
2021/01/01 01:16:23;;;;;;;22.15;13.93;;;1.80;99.90;;;;;;5086860;28;20137;-71
2021/01/01 01:18:49;;;;;;;29.05;16.60;;;1.80;99.90;;;;;;5067526;28;20025;-71
2021/01/01 01:21:16;;;;;;;37.45;22.00;;;1.80;99.90;;;;;;5085136;28;20054;-71
2021/01/01 01:23:41;;;;;;;33.58;20.02;;;1.80;99.90;;;;;;5082059;28;20032;-69
2021/01/01 01:26:07;;;;;;;30.08;16.98;;;1.80;99.90;;;;;;5087355;28;20028;-70
2021/01/01 01:28:33;;;;;;;19.98;11.55;;;1.80;99.90;;;;;;5085878;28;20028;-71
2021/01/01 01:30:59;;;;;;;18.48;10.05;;;1.90;99.90;;;;;;5083244;28;20165;-70
2021/01/01 01:33:24;;;;;;;17.42;11.50;;;2.00;99.90;;;;;;5067811;28;20367;-70
2021/01/01 01:35:50;;;;;;;14.68;9.70;;;2.10;99.90;;;;;;5088004;28;20032;-71
2021/01/01 01:38:16;;;;;;;15.05;9.93;;;2.30;99.90;;;;;;5086372;28;20469;-69
2021/01/01 01:40:41;;;;;;;13.93;10.05;;;2.40;99.90;;;;;;5085953;28;20051;-69
2021/01/01 01:43:07;;;;;;;14.80;9.57;;;2.40;99.90;;;;;;5086660;28;20024;-70
2021/01/01 01:45:32;;;;;;;14.25;9.73;;;2.50;99.90;;;;;;5085917;28;20097;-70
2021/01/01 01:48:00;;;;;;;14.80;9.75;;;2.50;99.90;;;;;;5085663;28;20164;-71
2021/01/01 01:50:26;;;;;;;16.00;10.00;;;2.50;99.90;;;;;;5087275;28;20036;-71
2021/01/01 01:52:52;;;;;;;17.55;11.07;;;2.50;99.90;;;;;;5084677;28;20028;-70
2021/01/01 01:55:18;;;;;;;16.17;11.18;;;2.50;99.90;;;;;;5083837;28;20047;-70
2021/01/01 01:57:44;;;;;;;15.98;10.55;;;2.50;99.90;;;;;;5084012;28;20032;-69
2021/01/01 02:02:48;;;;;;;15.05;9.80;;;2.50;99.90;;;;;;5088051;28;20040;-70
2021/01/01 02:05:14;;;;;;;15.90;10.57;;;2.50;99.90;;;;;;5088095;28;20044;-71
2021/01/01 02:07:40;;;;;;;17.13;10.50;;;2.50;99.90;;;;;;5087437;28;20024;-68
2021/01/01 02:10:07;;;;;;;14.95;9.95;;;2.50;99.90;;;;;;5092370;28;20035;-70
2021/01/01 02:12:33;;;;;;;14.20;9.57;;;2.60;99.90;;;;;;5089732;28;20024;-71
2021/01/01 02:14:59;;;;;;;13.63;9.43;;;2.50;99.90;;;;;;5087747;28;20025;-71
2021/01/01 02:17:25;;;;;;;14.05;9.90;;;2.60;99.90;;;;;;5090442;28;20389;-69
2021/01/01 02:20:03;;;;;;;14.60;10.07;;;2.60;99.90;;;;;;5088206;28;20028;-70
2021/01/01 02:22:40;;;;;;;14.68;9.88;;;2.60;99.90;;;;;;5087739;28;20024;-70
2021/01/01 02:25:08;;;;;;;17.25;10.43;;;2.60;99.90;;;;;;5087438;28;20154;-70
2021/01/01 02:27:34;;;;;;;16.60;10.68;;;2.60;99.90;;;;;;5068949;28;20109;-70
2021/01/01 02:30:00;;;;;;;16.10;10.00;;;2.60;99.90;;;;;;5088857;28;20744;-70
2021/01/01 02:32:25;;;;;;;16.30;9.98;;;2.60;99.90;;;;;;5086484;28;20032;-70
2021/01/01 02:34:51;;;;;;;16.77;10.43;;;2.60;99.90;;;;;;5071338;28;20353;-70
2021/01/01 02:37:17;;;;;;;17.20;10.70;;;2.60;99.90;;;;;;5093347;28;20024;-69
2021/01/01 02:39:43;;;;;;;14.43;9.52;;;2.60;99.90;;;;;;5093240;28;20028;-70
2021/01/01 02:42:09;;;;;;;14.45;10.10;;;2.60;99.90;;;;;;5094588;28;20027;-69
2021/01/01 02:44:35;;;;;;;14.95;9.95;;;2.60;99.90;;;;;;5094220;28;20036;-70
2021/01/01 02:47:04;;;;;;;14.93;9.65;;;2.60;99.90;;;;;;5093564;28;20028;-70
2021/01/01 02:49:31;;;;;;;15.10;9.97;;;2.60;99.90;;;;;;5094440;28;20028;-70
2021/01/01 02:51:57;;;;;;;13.02;8.50;;;2.60;99.90;;;;;;5093154;28;20102;-69
2021/01/01 02:54:24;;;;;;;16.05;10.52;;;2.60;99.90;;;;;;5094236;28;20055;-69
2021/01/01 02:56:49;;;;;;;14.75;10.18;;;2.50;99.90;;;;;;5093261;28;20028;-70
2021/01/01 02:59:15;;;;;;;20.52;11.27;;;2.50;99.90;;;;;;5093899;28;20032;-69
2021/01/01 03:01:40;;;;;;;15.30;10.55;;;2.60;99.90;;;;;;5093274;28;20035;-68
2021/01/01 03:04:06;;;;;;;18.58;11.18;;;2.60;99.90;;;;;;5093960;28;20036;-69
2021/01/01 03:06:32;;;;;;;15.80;10.38;;;2.60;99.90;;;;;;5093401;28;20082;-69
2021/01/01 03:08:58;;;;;;;17.20;10.55;;;2.60;99.90;;;;;;5092848;28;20521;-69
2021/01/01 03:11:24;;;;;;;17.77;11.13;;;2.60;99.90;;;;;;5093628;28;20036;-69
2021/01/01 03:13:49;;;;;;;17.23;11.00;;;2.60;99.90;;;;;;5074734;28;20071;-68
2021/01/01 03:16:15;;;;;;;16.20;10.73;;;2.60;99.90;;;;;;5093534;28;20075;-69
2021/01/01 03:18:41;;;;;;;16.50;10.85;;;2.50;99.90;;;;;;5093338;28;20028;-68
2021/01/01 03:21:06;;;;;;;19.33;12.07;;;2.50;99.90;;;;;;5093458;28;20396;-69
2021/01/01 03:23:32;;;;;;;17.70;11.73;;;2.50;99.90;;;;;;5093837;28;20052;-69
2021/01/01 03:25:58;;;;;;;17.52;11.88;;;2.40;99.90;;;;;;5092454;28;20048;-69
2021/01/01 03:28:23;;;;;;;21.08;12.05;;;2.40;99.90;;;;;;5093442;28;20400;-69
2021/01/01 03:30:49;;;;;;;17.70;12.23;;;2.30;99.90;;;;;;5074280;28;20557;-69
2021/01/01 03:33:15;;;;;;;18.85;11.95;;;2.30;99.90;;;;;;5093547;28;20443;-69
2021/01/01 03:35:41;;;;;;;19.45;11.75;;;2.20;99.90;;;;;;5093016;28;20461;-68
2021/01/01 03:38:06;;;;;;;19.52;11.90;;;2.10;99.90;;;;;;5092859;28;20063;-69
2021/01/01 03:40:32;;;;;;;17.25;11.23;;;2.10;99.90;;;;;;5093158;28;20445;-69
2021/01/01 03:42:58;;;;;;;20.35;12.10;;;2.10;99.90;;;;;;5092407;28;20027;-69
2021/01/01 03:45:24;;;;;;;19.00;11.75;;;2.00;99.90;;;;;;5074714;28;20131;-69
2021/01/01 03:47:50;;;;;;;19.40;11.93;;;2.00;99.90;;;;;;5074224;28;20110;-70
2021/01/01 03:50:15;;;;;;;20.95;11.85;;;2.00;99.90;;;;;;5093432;28;20103;-69
2021/01/01 03:52:41;;;;;;;18.50;12.52;;;2.00;99.90;;;;;;5092677;28;20086;-68
2021/01/01 03:55:08;;;;;;;21.17;12.68;;;2.00;99.90;;;;;;5092931;28;20615;-68
2021/01/01 03:57:34;;;;;;;22.42;13.57;;;1.90;99.90;;;;;;5092861;28;20055;-69
2021/01/01 03:59:59;;;;;;;21.83;13.43;;;1.90;99.90;;;;;;5091694;28;20056;-68
2021/01/01 04:02:25;;;;;;;21.48;12.93;;;1.90;99.90;;;;;;5074533;28;20082;-70
2021/01/01 04:04:51;;;;;;;22.13;13.73;;;1.90;99.90;;;;;;5092327;28;20085;-69
2021/01/01 04:07:17;;;;;;;21.80;12.85;;;1.90;99.90;;;;;;5092836;28;20492;-69
2021/01/01 04:09:43;;;;;;;22.00;13.05;;;1.90;99.90;;;;;;5092473;28;20026;-69
2021/01/01 04:12:08;;;;;;;22.77;13.25;;;1.90;99.90;;;;;;5074427;28;20411;-70
2021/01/01 04:14:34;;;;;;;24.92;13.80;;;1.90;99.90;;;;;;5092173;28;20036;-70
2021/01/01 04:17:00;;;;;;;24.95;13.43;;;1.90;99.90;;;;;;5091735;28;20127;-70
2021/01/01 04:19:26;;;;;;;24.73;14.23;;;1.90;99.90;;;;;;5092842;28;20473;-70
2021/01/01 04:21:51;;;;;;;24.33;14.63;;;1.80;99.90;;;;;;5090893;28;20028;-69
2021/01/01 04:24:18;;;;;;;21.65;13.05;;;1.80;99.90;;;;;;5092703;28;20032;-70
2021/01/01 04:26:44;;;;;;;23.98;13.93;;;1.90;99.90;;;;;;5092100;28;20130;-69
2021/01/01 04:29:10;;;;;;;21.58;12.98;;;1.80;99.90;;;;;;5091930;28;20024;-70
2021/01/01 04:31:37;;;;;;;24.27;13.43;;;1.90;99.90;;;;;;5092114;28;20027;-70
2021/01/01 04:34:04;;;;;;;22.42;13.18;;;1.90;99.90;;;;;;5091379;28;20292;-70
2021/01/01 04:36:30;;;;;;;23.38;13.18;;;1.80;99.90;;;;;;5073800;28;20039;-68
2021/01/01 04:38:55;;;;;;;21.38;12.88;;;1.80;99.90;;;;;;5073537;28;20024;-69
2021/01/01 04:41:21;;;;;;;22.63;12.32;;;1.80;99.90;;;;;;5091783;28;20034;-69
2021/01/01 04:43:51;;;;;;;21.65;13.10;;;1.90;99.90;;;;;;5091113;28;20027;-68
2021/01/01 04:46:17;;;;;;;24.33;13.52;;;1.80;99.90;;;;;;5092032;28;20388;-69
2021/01/01 04:48:44;;;;;;;25.85;13.95;;;1.80;99.90;;;;;;5091593;28;20086;-68
2021/01/01 04:51:10;;;;;;;22.50;13.07;;;1.80;99.90;;;;;;5091479;28;20028;-69
2021/01/01 04:53:37;;;;;;;22.30;13.50;;;1.80;99.90;;;;;;5091465;28;20099;-69
2021/01/01 04:56:04;;;;;;;21.60;12.60;;;1.80;99.90;;;;;;5091104;28;20653;-69
2021/01/01 04:58:29;;;;;;;22.75;13.00;;;1.80;99.90;;;;;;5091651;28;20028;-69
2021/01/01 05:00:55;;;;;;;22.35;12.90;;;1.80;99.90;;;;;;5090335;28;20465;-69
2021/01/01 05:03:21;;;;;;;23.70;12.95;;;1.80;99.90;;;;;;5091932;28;20089;-69
2021/01/01 05:05:51;;;;;;;24.05;12.93;;;1.80;99.90;;;;;;5090735;28;20020;-68
2021/01/01 05:08:17;;;;;;;22.83;11.77;;;1.80;99.90;;;;;;5091820;28;20123;-69
2021/01/01 05:10:44;;;;;;;20.52;12.43;;;1.80;99.90;;;;;;5091271;28;20036;-68
2021/01/01 05:13:11;;;;;;;22.58;12.90;;;1.80;99.90;;;;;;5091310;28;20077;-69
2021/01/01 05:15:38;;;;;;;20.25;11.75;;;1.80;99.90;;;;;;5091135;28;20388;-69
2021/01/01 05:18:25;;;;;;;18.92;10.98;;;1.80;99.90;;;;;;5090617;28;20147;-69
2021/01/01 05:20:55;;;;;;;22.85;12.82;;;1.90;99.90;;;;;;5090795;28;20027;-69
2021/01/01 05:23:22;;;;;;;21.45;11.73;;;1.90;99.90;;;;;;5091029;28;20069;-69
2021/01/01 05:26:06;;;;;;;23.17;12.77;;;1.90;99.90;;;;;;5090178;28;20354;-68
2021/01/01 05:28:44;;;;;;;19.27;11.35;;;1.90;99.90;;;;;;5090800;28;20024;-69
2021/01/01 05:31:14;;;;;;;25.45;12.75;;;1.90;99.90;;;;;;5089763;28;20039;-70
2021/01/01 05:34:01;;;;;;;25.63;13.45;;;1.90;99.90;;;;;;5090815;28;20024;-69
2021/01/01 05:36:44;;;;;;;21.75;11.82;;;1.90;99.90;;;;;;5091055;28;20032;-69
2021/01/01 05:39:13;;;;;;;20.50;11.90;;;1.90;99.90;;;;;;5091370;28;20545;-68
2021/01/01 05:41:44;;;;;;;19.92;11.52;;;1.90;99.90;;;;;;5091245;28;20024;-68
2021/01/01 05:44:11;;;;;;;21.40;12.00;;;1.90;99.90;;;;;;5073237;28;20229;-68
2021/01/01 05:47:01;;;;;;;22.15;11.02;;;1.90;99.90;;;;;;5091413;28;20074;-70
2021/01/01 05:49:38;;;;;;;20.67;11.07;;;1.90;99.90;;;;;;5091035;28;20473;-69
2021/01/01 05:52:21;;;;;;;21.13;11.63;;;1.90;99.90;;;;;;5090656;28;20481;-70
2021/01/01 05:54:58;;;;;;;21.45;11.52;;;1.90;99.90;;;;;;5090363;28;20083;-68
2021/01/01 05:57:39;;;;;;;21.23;12.07;;;1.90;99.90;;;;;;5083819;28;20032;-69
2021/01/01 06:00:05;;;;;;;23.30;11.20;;;1.90;99.90;;;;;;5090075;28;20032;-69
2021/01/01 06:02:37;;;;;;;20.45;11.98;;;1.90;99.90;;;;;;5090954;28;20038;-69
2021/01/01 06:05:06;;;;;;;22.55;13.25;;;2.00;99.90;;;;;;5090450;28;20397;-71
2021/01/01 06:07:36;;;;;;;23.58;12.30;;;1.90;99.90;;;;;;5072799;28;20062;-70
2021/01/01 06:10:05;;;;;;;26.13;13.32;;;2.00;99.90;;;;;;5090250;28;20032;-69
2021/01/01 06:12:38;;;;;;;26.88;14.45;;;2.00;99.90;;;;;;5090102;28;20028;-69
2021/01/01 06:15:06;;;;;;;24.08;13.93;;;2.00;99.90;;;;;;5090010;28;20570;-69
2021/01/01 06:17:47;;;;;;;21.55;12.30;;;2.00;99.90;;;;;;5091233;28;20111;-69
2021/01/01 06:20:19;;;;;;;20.42;12.48;;;2.00;99.90;;;;;;5090241;28;20055;-69
2021/01/01 06:23:25;;;;;;;19.20;11.80;;;2.00;99.90;;;;;;5090941;28;20077;-69
2021/01/01 06:25:51;;;;;;;20.55;10.80;;;2.00;99.90;;;;;;5056195;28;20093;-69
2021/01/01 06:28:16;;;;;;;17.25;11.63;;;2.00;99.90;;;;;;5091053;28;20028;-68
2021/01/01 06:30:42;;;;;;;16.27;10.48;;;2.00;99.90;;;;;;5090987;28;20047;-69
2021/01/01 06:33:08;;;;;;;16.65;10.43;;;1.90;99.90;;;;;;5071724;28;20039;-70
2021/01/01 06:35:42;;;;;;;19.10;11.35;;;1.80;99.90;;;;;;5072883;28;20020;-69
2021/01/01 06:38:08;;;;;;;19.45;11.73;;;1.70;99.90;;;;;;5089977;28;20106;-69
2021/01/01 06:40:36;;;;;;;19.02;10.90;;;1.70;99.90;;;;;;5090950;28;20453;-69
2021/01/01 06:43:07;;;;;;;18.55;11.48;;;1.60;99.90;;;;;;5090083;28;20052;-70
2021/01/01 06:45:46;;;;;;;17.92;10.55;;;1.60;99.90;;;;;;5092860;28;20453;-69
2021/01/01 06:48:33;;;;;;;20.20;11.57;;;1.60;99.90;;;;;;5094046;28;20028;-70
2021/01/01 06:50:59;;;;;;;15.02;10.15;;;1.50;99.90;;;;;;5085078;28;20048;-69
2021/01/01 06:53:29;;;;;;;17.02;10.40;;;1.50;99.90;;;;;;5094832;28;20043;-69
2021/01/01 06:56:11;;;;;;;16.27;10.32;;;1.50;99.90;;;;;;5092851;28;20063;-69
2021/01/01 06:58:37;;;;;;;12.90;8.57;;;1.50;99.90;;;;;;5093955;28;20447;-69
2021/01/01 07:01:16;;;;;;;14.70;8.80;;;1.50;99.90;;;;;;5092657;28;20111;-70
2021/01/01 07:03:42;;;;;;;14.18;8.15;;;1.50;99.90;;;;;;5075775;28;20469;-70
2021/01/01 07:06:08;;;;;;;11.82;8.07;;;1.50;99.90;;;;;;5092875;28;20043;-70
2021/01/01 07:08:42;;;;;;;12.82;7.80;;;1.40;99.90;;;;;;5093772;28;20059;-70
2021/01/01 07:11:14;;;;;;;11.07;7.50;;;1.50;99.90;;;;;;5092759;28;20077;-70
2021/01/01 07:13:41;;;;;;;12.32;7.80;;;1.40;99.90;;;;;;5094279;28;20085;-69
2021/01/01 07:16:07;;;;;;;9.93;6.85;;;1.40;99.90;;;;;;5092885;28;20028;-69
2021/01/01 07:18:33;;;;;;;11.23;7.13;;;1.50;99.90;;;;;;5093675;28;20380;-69
2021/01/01 07:21:03;;;;;;;10.38;6.75;;;1.40;99.90;;;;;;5074703;28;20028;-69
2021/01/01 07:23:29;;;;;;;9.93;5.97;;;1.40;99.90;;;;;;5075477;28;20477;-69
2021/01/01 07:25:55;;;;;;;10.07;6.72;;;1.40;99.90;;;;;;5092923;28;20020;-69
2021/01/01 07:28:23;;;;;;;10.52;6.57;;;1.40;99.90;;;;;;5093601;28;20032;-70
2021/01/01 07:30:49;;;;;;;10.43;7.18;;;1.40;99.90;;;;;;5093515;28;20028;-69
2021/01/01 07:33:25;;;;;;;9.85;6.55;;;1.40;99.90;;;;;;5092604;28;20043;-69
2021/01/01 07:35:52;;;;;;;9.68;6.10;;;1.40;99.90;;;;;;5092547;28;20520;-69
2021/01/01 07:38:22;;;;;;;10.57;6.70;;;1.40;99.90;;;;;;5093405;28;20024;-69
2021/01/01 07:40:49;;;;;;;10.55;6.38;;;1.40;99.90;;;;;;5093627;28;20030;-71
2021/01/01 07:43:15;;;;;;;9.45;6.38;;;1.40;99.90;;;;;;5091822;28;20028;-71
2021/01/01 07:45:43;;;;;;;7.63;5.40;;;1.40;99.90;;;;;;5092562;28;20032;-71
2021/01/01 07:48:10;;;;;;;9.73;6.13;;;1.40;99.90;;;;;;5089833;28;20017;-70
2021/01/01 07:50:37;;;;;;;9.57;5.95;;;1.40;99.90;;;;;;5090085;28;20035;-70
2021/01/01 07:53:12;;;;;;;9.30;6.15;;;1.40;99.90;;;;;;5092125;28;20569;-72
2021/01/01 07:55:40;;;;;;;9.48;6.03;;;1.40;99.90;;;;;;5091840;28;20127;-71
2021/01/01 07:58:11;;;;;;;10.88;6.10;;;1.40;99.90;;;;;;5091875;28;20028;-71
2021/01/01 08:00:38;;;;;;;9.43;5.43;;;1.50;99.90;;;;;;5088623;28;20493;-71
2021/01/01 08:03:05;;;;;;;8.05;5.45;;;1.50;99.90;;;;;;5089727;28;20479;-71
2021/01/01 08:05:32;;;;;;;8.60;5.45;;;1.50;99.90;;;;;;5085177;28;20465;-72
2021/01/01 08:08:12;;;;;;;8.43;5.30;;;1.50;99.90;;;;;;5086858;28;20031;-71
2021/01/01 08:10:40;;;;;;;10.93;6.60;;;1.50;99.90;;;;;;5092221;28;20024;-73
2021/01/01 08:13:14;;;;;;;8.63;5.57;;;1.50;99.90;;;;;;5091992;28;20031;-73
2021/01/01 08:15:42;;;;;;;8.07;5.38;;;1.50;99.90;;;;;;5073930;28;20047;-72
2021/01/01 08:18:25;;;;;;;7.72;5.32;;;1.60;99.90;;;;;;5091633;28;20020;-76
2021/01/01 08:21:03;;;;;;;8.98;5.80;;;1.60;99.90;;;;;;5088430;28;20035;-73
2021/01/01 08:23:40;;;;;;;8.18;5.25;;;1.60;99.90;;;;;;5092133;28;20031;-74
2021/01/01 08:26:07;;;;;;;7.53;5.70;;;1.70;99.90;;;;;;5091766;28;20028;-75
2021/01/01 08:28:35;;;;;;;8.75;5.45;;;1.70;99.90;;;;;;5091371;28;20027;-75
2021/01/01 08:31:05;;;;;;;7.05;5.38;;;1.70;99.90;;;;;;5090073;28;20028;-74
2021/01/01 08:33:41;;;;;;;6.63;4.40;;;1.70;99.90;;;;;;5092419;28;20032;-72
2021/01/01 08:36:09;;;;;;;7.43;4.63;;;1.80;99.90;;;;;;5091532;28;20683;-73
2021/01/01 08:38:37;;;;;;;7.40;4.70;;;1.80;99.90;;;;;;5091798;28;20032;-74
2021/01/01 08:41:04;;;;;;;6.88;4.85;;;1.90;99.90;;;;;;5090928;28;20028;-73
2021/01/01 08:43:30;;;;;;;5.80;4.43;;;2.00;99.90;;;;;;5092433;28;20024;-74
2021/01/01 08:45:56;;;;;;;6.82;4.75;;;2.00;99.90;;;;;;5087568;28;20024;-73
2021/01/01 08:48:30;;;;;;;6.47;4.32;;;2.00;99.90;;;;;;5085097;28;20357;-73
2021/01/01 08:50:56;;;;;;;8.23;4.07;;;2.00;99.90;;;;;;5084389;28;20028;-73
2021/01/01 08:53:23;;;;;;;7.20;4.93;;;2.00;99.90;;;;;;5085384;28;20032;-73
2021/01/01 08:56:00;;;;;;;5.50;4.38;;;2.00;99.90;;;;;;5091542;28;20047;-73
2021/01/01 08:58:27;;;;;;;6.88;4.68;;;2.00;99.90;;;;;;5085394;28;20534;-74
2021/01/01 09:00:53;;;;;;;6.28;4.45;;;2.00;99.90;;;;;;5087230;28;20024;-71
2021/01/01 09:03:21;;;;;;;5.05;4.00;;;2.10;99.90;;;;;;5070986;28;20070;-70
2021/01/01 09:05:55;;;;;;;5.97;4.13;;;2.10;99.90;;;;;;5075296;28;20036;-70
2021/01/01 09:08:23;;;;;;;8.07;4.90;;;2.10;99.90;;;;;;5087695;28;20027;-69
2021/01/01 09:10:54;;;;;;;6.40;4.90;;;2.20;99.90;;;;;;5093310;28;20092;-68
2021/01/01 09:13:24;;;;;;;7.60;4.97;;;2.20;99.90;;;;;;5072501;28;20040;-70
2021/01/01 09:16:11;;;;;;;7.28;5.05;;;2.20;99.90;;;;;;5091380;28;20058;-68
2021/01/01 09:18:37;;;;;;;8.68;5.53;;;2.20;99.90;;;;;;5091050;28;20036;-71
2021/01/01 09:21:14;;;;;;;7.28;5.40;;;2.30;99.90;;;;;;5087670;28;20025;-73
2021/01/01 09:23:41;;;;;;;6.03;4.32;;;2.30;99.90;;;;;;5091318;28;20032;-71
2021/01/01 09:26:07;;;;;;;5.72;4.13;;;2.40;99.90;;;;;;5090633;28;20119;-73
2021/01/01 09:28:34;;;;;;;4.68;3.33;;;2.50;99.90;;;;;;5091271;28;20028;-72
2021/01/01 09:31:00;;;;;;;4.28;3.63;;;2.60;99.90;;;;;;5090928;28;20458;-71
2021/01/01 09:33:26;;;;;;;3.58;2.95;;;2.60;99.90;;;;;;5071880;28;20089;-74
2021/01/01 09:35:52;;;;;;;4.55;2.97;;;2.80;99.90;;;;;;5088259;28;20047;-71
2021/01/01 09:38:17;;;;;;;4.13;2.83;;;2.80;99.90;;;;;;5090701;28;20028;-71
2021/01/01 09:40:43;;;;;;;4.65;2.95;;;2.90;99.90;;;;;;5090824;28;20392;-72
2021/01/01 09:43:09;;;;;;;5.95;4.00;;;2.90;99.90;;;;;;5090004;28;20024;-74
2021/01/01 09:45:36;;;;;;;5.55;3.80;;;3.00;99.90;;;;;;5087252;28;20393;-73
2021/01/01 09:48:02;;;;;;;4.10;3.45;;;3.10;99.90;;;;;;5086221;28;20050;-70
2021/01/01 09:50:29;;;;;;;5.32;2.97;;;3.10;99.90;;;;;;5087236;28;20044;-73
2021/01/01 09:52:54;;;;;;;4.30;3.10;;;3.10;99.90;;;;;;5084421;28;20473;-75
2021/01/01 09:55:20;;;;;;;4.32;3.25;;;3.10;99.90;;;;;;5089699;28;20059;-76
2021/01/01 09:57:46;;;;;;;4.03;3.00;;;3.10;99.90;;;;;;5072949;28;20028;-73
2021/01/01 10:00:14;;;;;;;3.63;2.85;;;3.20;99.90;;;;;;5072051;28;20042;-72
2021/01/01 10:02:41;;;;;;;5.28;2.72;;;3.20;99.90;;;;;;5088450;28;20501;-71
2021/01/01 10:05:08;;;;;;;3.83;2.72;;;3.30;98.90;;;;;;5081801;28;20039;-72
2021/01/01 10:07:34;;;;;;;4.20;3.40;;;3.30;99.10;;;;;;5090682;28;20453;-71
2021/01/01 10:10:00;;;;;;;4.07;3.17;;;3.30;98.40;;;;;;5084702;28;20103;-72
2021/01/01 10:12:26;;;;;;;6.28;3.55;;;3.40;99.00;;;;;;5088286;28;20468;-73
2021/01/01 10:14:57;;;;;;;5.25;3.65;;;3.40;98.90;;;;;;5085972;28;20032;-74
2021/01/01 10:17:24;;;;;;;4.53;3.63;;;3.50;99.90;;;;;;5071979;28;20222;-75
2021/01/01 10:19:50;;;;;;;5.15;3.28;;;3.60;99.90;;;;;;5090663;28;20059;-76
2021/01/01 10:22:16;;;;;;;4.13;3.20;;;3.70;98.70;;;;;;5075047;28;20062;-72
2021/01/01 10:24:46;;;;;;;4.43;3.40;;;3.80;97.90;;;;;;5072366;28;20043;-76
2021/01/01 10:27:13;;;;;;;4.38;3.25;;;3.80;95.90;;;;;;5092458;28;20092;-71
2021/01/01 10:29:39;;;;;;;3.40;2.65;;;3.80;96.30;;;;;;5092234;28;20032;-71
2021/01/01 10:32:09;;;;;;;9.38;5.40;;;3.90;92.80;;;;;;5093971;28;20028;-69
2021/01/01 10:34:36;;;;;;;5.13;3.60;;;4.00;92.40;;;;;;5094565;28;20036;-73
2021/01/01 10:37:02;;;;;;;4.90;3.28;;;3.90;92.10;;;;;;5094131;28;20043;-69
2021/01/01 10:39:27;;;;;;;4.28;3.42;;;3.90;93.70;;;;;;5084962;28;20028;-74
2021/01/01 10:41:53;;;;;;;5.10;3.35;;;3.80;94.10;;;;;;5094516;28;20392;-72
2021/01/01 10:44:19;;;;;;;4.05;3.03;;;3.80;94.50;;;;;;5093640;28;20032;-73
2021/01/01 10:46:52;;;;;;;5.18;3.42;;;3.70;94.60;;;;;;5094598;28;20146;-73
2021/01/01 10:49:20;;;;;;;3.65;3.22;;;3.70;94.50;;;;;;5093338;28;20370;-73
2021/01/01 10:51:45;;;;;;;5.03;3.10;;;3.60;95.10;;;;;;5076476;28;20039;-74
2021/01/01 10:54:11;;;;;;;4.40;3.40;;;3.60;94.70;;;;;;5092976;28;20044;-73
2021/01/01 10:56:37;;;;;;;4.93;3.13;;;3.60;94.10;;;;;;5094611;28;20055;-73
2021/01/01 10:59:03;;;;;;;3.78;3.10;;;3.60;95.20;;;;;;5094298;28;20439;-69
2021/01/01 11:01:29;;;;;;;4.00;3.15;;;3.70;94.80;;;;;;5089577;28;20031;-76
2021/01/01 11:03:54;;;;;;;5.00;3.42;;;3.70;93.00;;;;;;5093915;28;20782;-71
2021/01/01 11:06:21;;;;;;;4.18;2.85;;;3.70;93.40;;;;;;5093704;28;20426;-73
2021/01/01 11:08:47;;;;;;;3.45;2.85;;;3.70;93.40;;;;;;5093768;28;20469;-73
2021/01/01 11:11:14;;;;;;;5.78;3.72;;;3.70;93.90;;;;;;5093794;28;20530;-74
2021/01/01 11:13:49;;;;;;;8.20;4.40;;;3.80;93.70;;;;;;5077175;28;20016;-72
2021/01/01 12:22:28;;;;;;;4.85;3.50;;;3.60;94.00;;;;;;5085919;28;20381;-70
2021/01/01 12:24:54;;;;;;;5.43;4.20;;;3.60;93.20;;;;;;5072907;28;20397;-71
2021/01/01 12:27:24;;;;;;;4.32;3.45;;;3.60;93.30;;;;;;5090512;28;20123;-71
2021/01/01 12:29:51;;;;;;;4.57;3.28;;;3.60;92.90;;;;;;5091181;28;20489;-71
2021/01/01 12:32:18;;;;;;;6.95;3.90;;;3.60;93.30;;;;;;5088172;28;20389;-70
2021/01/01 12:34:43;;;;;;;6.82;4.47;;;3.60;93.20;;;;;;5085828;28;20039;-71
2021/01/01 12:37:10;;;;;;;5.35;3.58;;;3.60;92.70;;;;;;5082794;28;20037;-68
2021/01/01 12:39:36;;;;;;;5.68;3.65;;;3.60;89.80;;;;;;5087265;28;20492;-70
2021/01/01 12:42:04;;;;;;;5.55;3.85;;;3.70;90.10;;;;;;5084480;28;20055;-71
2021/01/01 12:44:31;;;;;;;5.53;3.92;;;3.70;90.10;;;;;;5084641;28;20044;-71
2021/01/01 12:46:58;;;;;;;6.07;4.10;;;3.70;90.90;;;;;;5086510;28;20029;-68
2021/01/01 12:49:24;;;;;;;5.63;4.00;;;3.70;92.00;;;;;;5065911;28;20071;-71
2021/01/01 12:51:50;;;;;;;3.50;3.17;;;3.70;90.50;;;;;;5082750;28;20047;-71
2021/01/01 12:54:16;;;;;;;5.03;3.70;;;3.80;91.20;;;;;;5066898;28;20443;-70
2021/01/01 12:56:42;;;;;;;4.43;3.47;;;3.80;91.40;;;;;;5085409;28;20028;-70
2021/01/01 12:59:08;;;;;;;5.03;3.75;;;3.80;90.50;;;;;;5083117;28;20034;-69
2021/01/01 13:01:34;;;;;;;5.85;3.85;;;3.90;90.30;;;;;;5084010;28;20016;-71
2021/01/01 13:04:00;;;;;;;5.40;3.85;;;3.90;89.00;;;;;;5061739;28;20056;-70
2021/01/01 13:06:27;;;;;;;4.70;3.90;;;4.00;87.40;;;;;;5085524;28;20024;-68
2021/01/01 13:08:57;;;;;;;4.63;3.53;;;4.00;89.50;;;;;;5079447;28;20410;-70
2021/01/01 13:11:26;;;;;;;5.25;4.00;;;4.00;90.00;;;;;;5063084;28;20469;-72
2021/01/01 13:13:52;;;;;;;5.35;4.38;;;4.00;88.80;;;;;;5066020;28;20023;-72
2021/01/01 13:16:22;;;;;;;6.25;4.55;;;4.00;89.00;;;;;;5083575;28;20477;-71
2021/01/01 13:18:48;;;;;;;;;;;3.90;89.70;;;;;;5082955;28;20029;-71
2021/01/01 13:21:27;;;;;;;5.30;4.10;;;3.90;87.60;;;;;;5076515;28;20683;-73
2021/01/01 13:23:52;;;;;;;6.82;4.65;;;3.80;90.10;;;;;;5081058;28;20035;-73
2021/01/01 13:26:22;;;;;;;6.15;4.75;;;3.70;90.20;;;;;;5081674;28;20028;-72
2021/01/01 13:28:48;;;;;;;6.43;4.40;;;3.70;90.60;;;;;;5080980;28;20028;-71
2021/01/01 13:31:14;;;;;;;5.95;4.68;;;3.60;90.60;;;;;;5082679;28;20639;-72
2021/01/01 13:33:40;;;;;;;6.03;4.15;;;3.60;91.10;;;;;;5081575;28;20116;-73
2021/01/01 13:36:16;;;;;;;7.00;4.13;;;3.60;91.70;;;;;;5081914;28;20062;-69
2021/01/01 13:38:43;;;;;;;8.00;5.00;;;3.60;92.00;;;;;;5082731;28;20032;-72
2021/01/01 13:41:13;;;;;;;7.50;4.88;;;3.60;92.30;;;;;;5083579;28;20028;-69
2021/01/01 13:43:44;;;;;;;7.53;5.28;;;3.70;91.50;;;;;;5082230;28;20047;-76
2021/01/01 13:46:18;;;;;;;6.97;4.72;;;3.60;91.90;;;;;;5080513;28;20066;-72
2021/01/01 13:48:43;;;;;;;6.35;4.30;;;3.70;91.60;;;;;;5083714;28;20062;-79
2021/01/01 13:51:09;;;;;;;5.63;4.10;;;3.70;91.90;;;;;;5087784;28;20028;-72
2021/01/01 13:53:35;;;;;;;5.85;4.13;;;3.80;92.20;;;;;;5082957;28;20024;-74
2021/01/01 13:56:01;;;;;;;6.10;4.63;;;3.80;91.70;;;;;;5089510;28;20052;-74
2021/01/01 13:58:27;;;;;;;6.70;4.53;;;3.80;90.30;;;;;;5087046;28;20035;-75